Saturday, January 20, 2018, 8:23 AM EST
Back to Local

KFMH, Otis Air National Guard Base

Location: Mashpee, MA, United States Lat: 41.65
Local Time: 8:23 AM EST (13:23 GMT) Lon: -70.517
Time Zone: US/Eastern Elev: 131 ft

Show me the last for .
Show Decoded

2018-01-20 08:15 METAR KFMH 201315Z AUTO 23024G31KT 10SM CLR 05/M03 A2975 RMK AO2 =
2018-01-20 07:55 METAR KFMH 201255Z AUTO 23021G32KT 10SM CLR 05/M03 A2975 RMK AO2 =
2018-01-20 07:35 METAR KFMH 201235Z AUTO 23019G32KT 10SM CLR 04/M03 A2976 RMK AO2 =
2018-01-20 07:15 METAR KFMH 201215Z AUTO 23020G26KT 10SM CLR 04/M03 A2977 RMK AO2 =
2018-01-20 06:55 METAR KFMH 201155Z AUTO 23019G25KT 10SM CLR 04/M03 A2977 RMK AO2 =
2018-01-20 06:35 METAR KFMH 201135Z AUTO 23017G23KT 10SM CLR 03/M03 A2978 RMK AO2 =
2018-01-20 06:15 METAR KFMH 201115Z AUTO 23016G25KT 10SM CLR 03/M03 A2978 RMK AO2 =
2018-01-20 05:55 METAR KFMH 201055Z AUTO 23016G24KT 10SM CLR 03/M02 A2980 RMK AO2 =
2018-01-20 05:35 METAR KFMH 201035Z AUTO 23014G20KT 10SM CLR 03/M02 A2980 RMK AO2 =
2018-01-20 05:15 METAR KFMH 201015Z AUTO 22014KT 10SM CLR 03/M02 A2982 RMK AO2 =
2018-01-20 04:55 METAR KFMH 200955Z AUTO 23016KT 10SM FEW120 03/M02 A2983 RMK AO2 =
2018-01-20 04:35 METAR KFMH 200935Z AUTO 23016G22KT 10SM SCT120 03/M02 A2983 RMK AO2 =
2018-01-20 04:15 METAR KFMH 200915Z AUTO 23015G23KT 10SM FEW120 03/M02 A2984 RMK AO2 =
2018-01-20 03:55 METAR KFMH 200855Z AUTO 23015G20KT 10SM CLR 03/M02 A2984 RMK AO2 =
2018-01-20 03:35 METAR KFMH 200835Z AUTO 22009KT 10SM CLR 01/M02 A2984 RMK AO2 =
2018-01-20 03:15 METAR KFMH 200815Z AUTO 22009KT 10SM CLR 01/M02 A2985 RMK AO2 =
2018-01-20 02:35 METAR KFMH 200735Z AUTO 20009KT 10SM CLR M01/M04 A2986 RMK AO2 =
2018-01-20 02:15 METAR KFMH 200715Z AUTO 19007KT 10SM CLR M02/M04 A2987 RMK AO2 =
2018-01-20 01:55 METAR KFMH 200655Z AUTO 19007KT 10SM CLR M02/M04 A2989 RMK AO2 =
2018-01-20 01:35 METAR KFMH 200635Z AUTO 19007KT 10SM CLR M03/M05 A2989 RMK AO2 =
2018-01-20 01:15 METAR KFMH 200615Z AUTO 20007KT 10SM CLR M03/M05 A2990 RMK AO2 =
2018-01-20 00:55 METAR KFMH 200555Z AUTO 18005KT 10SM CLR M02/M05 A2990 RMK AO2 =
2018-01-20 00:35 METAR KFMH 200535Z AUTO 20005KT 10SM CLR M03/M05 A2991 RMK AO2 =
2018-01-20 00:15 METAR KFMH 200515Z AUTO 22004KT 10SM CLR M02/M05 A2992 RMK AO2 =
2018-01-19 23:55 METAR KFMH 200455Z AUTO 24005KT 10SM CLR M03/M06 A2994 RMK AO2 =
2018-01-19 23:35 METAR KFMH 200435Z AUTO 24006KT 10SM CLR M02/M06 A2995 RMK AO2 =
2018-01-19 23:15 METAR KFMH 200415Z AUTO 24007KT 10SM CLR M02/M06 A2996 RMK AO2 =
2018-01-19 22:55 METAR KFMH 200355Z AUTO 23007KT 10SM FEW039 M02/M06 A2996 RMK AO2 =
2018-01-19 22:35 METAR KFMH 200335Z AUTO 24006KT 10SM SCT037 M03/M06 A2996 RMK AO2 =
2018-01-19 22:15 METAR KFMH 200315Z AUTO 23005KT 10SM BKN034 M02/M06 A2997 RMK AO2 =
2018-01-19 21:55 METAR KFMH 200255Z AUTO 23006KT 10SM OVC034 M03/M06 A2997 RMK AO2 =
2018-01-19 21:35 METAR KFMH 200235Z AUTO 24005KT 10SM OVC036 M03/M06 A2997 RMK AO2 =
2018-01-19 21:15 METAR KFMH 200215Z AUTO 24006KT 10SM OVC035 M02/M05 A2998 RMK AO2 =
2018-01-19 20:55 METAR KFMH 200155Z AUTO 25008KT 10SM BKN035 M02/M05 A2998 RMK AO2 =
2018-01-19 20:35 METAR KFMH 200135Z AUTO 27007KT 10SM BKN034 M02/M05 A2998 RMK AO2 =
2018-01-19 20:15 METAR KFMH 200115Z AUTO 26007KT 10SM SCT030 BKN036 M02/M05 A2997 RMK AO2 =
2018-01-19 19:55 METAR KFMH 200055Z AUTO 25005KT 10SM SCT030 BKN035 M03/M06 A2996 RMK AO2 =
2018-01-19 19:35 METAR KFMH 200035Z AUTO 24004KT 10SM SCT034 M04/M06 A2995 RMK AO2 =
2018-01-19 19:15 METAR KFMH 200015Z AUTO 25004KT 10SM FEW037 M04/M06 A2995 RMK AO2 =
2018-01-19 18:15 METAR KFMH 192315Z AUTO 00000KT 10SM OVC034 M03/M07 A2996 RMK AO2 =
2018-01-19 17:55 METAR KFMH 192255Z AUTO 00000KT 10SM OVC031 M03/M07 A2996 RMK AO2 =
2018-01-19 17:35 METAR KFMH 192235Z AUTO 00000KT 10SM BKN032 OVC038 M02/M07 A2996 RMK AO2 =
2018-01-19 17:15 METAR KFMH 192215Z AUTO 4.08000004KT 10SM SCT036 M02/M07 A2996 RMK AO2 =
2018-01-19 16:55 METAR KFMH 192155Z AUTO 23004KT 10SM CLR M01/M07 A2996 RMK AO2 =
2018-01-19 16:35 METAR KFMH 192135Z AUTO 24005KT 10SM CLR M01/M07 A2995 RMK AO2 =
2018-01-19 16:15 METAR KFMH 192115Z AUTO 25006KT 10SM CLR M00/M07 A2995 RMK AO2 =
2018-01-19 15:55 METAR KFMH 192055Z AUTO 25006KT 10SM CLR 00/M07 A2995 RMK AO2 =
2018-01-19 15:35 METAR KFMH 192035Z AUTO 24006KT 10SM CLR M00/M07 A2995 RMK AO2 =
2018-01-19 15:15 METAR KFMH 192015Z AUTO 24006KT 10SM CLR 00/M08 A2995 RMK AO2 =
2018-01-19 14:55 METAR KFMH 191955Z AUTO 25008G13KT 10SM CLR 00/M08 A2994 RMK AO2 =
2018-01-19 14:35 METAR KFMH 191935Z AUTO 27008KT 10SM CLR 01/M08 A2993 RMK AO2 =
2018-01-19 14:15 METAR KFMH 191915Z AUTO 23008KT 10SM CLR 00/M08 A2993 RMK AO2 =
2018-01-19 13:55 METAR KFMH 191855Z AUTO 25008KT 10SM CLR 01/M08 A2993 RMK AO2 =
2018-01-19 13:35 METAR KFMH 191835Z AUTO 26010KT 10SM CLR 00/M08 A2993 RMK AO2 =
2018-01-19 13:15 METAR KFMH 191815Z AUTO 27011KT 10SM CLR 00/M08 A2993 RMK AO2 =
2018-01-19 12:55 METAR KFMH 191755Z AUTO 24008KT 10SM CLR 00/M08 A2994 RMK AO2 =
2018-01-19 12:35 METAR KFMH 191735Z AUTO VRB06KT 10SM CLR M00/M08 A2994 RMK AO2 =
2018-01-19 12:15 METAR KFMH 191715Z AUTO 26008KT 10SM CLR M00/M08 A2995 RMK AO2 =
2018-01-19 11:55 METAR KFMH 191655Z AUTO 25009KT 10SM CLR M01/M08 A2996 RMK AO2 =
2018-01-19 11:35 METAR KFMH 191635Z AUTO 26008KT 10SM CLR M01/M08 A2997 RMK AO2 =
2018-01-19 11:15 METAR KFMH 191615Z AUTO 28010KT 10SM CLR M01/M08 A2998 RMK AO2 =
2018-01-19 10:35 METAR KFMH 191535Z AUTO 28009G15KT 10SM CLR M01/M07 A3000 RMK AO2 =
2018-01-19 10:15 METAR KFMH 191515Z AUTO 27013KT 10SM CLR M02/M08 A3001 RMK AO2 =
2018-01-19 09:55 METAR KFMH 191455Z AUTO 27009KT 10SM FEW039 M02/M08 A3000 RMK AO2 =
2018-01-19 09:35 METAR KFMH 191435Z AUTO 28011KT 10SM FEW038 M03/M08 A3001 RMK AO2 =
2018-01-19 09:15 METAR KFMH 191415Z AUTO 27010KT 10SM CLR M03/M08 A3001 RMK AO2 =
2018-01-19 08:55 METAR KFMH 191355Z AUTO 28010KT 10SM CLR M04/M08 A3001 RMK AO2 =
2018-01-19 08:35 METAR KFMH 191335Z AUTO 29009G14KT 10SM CLR M04/M08 A3001 RMK AO2 =

Support USWX by starting your Amazon purchase here.